Time;durP1;ratioP1;P1;durP2;ratioP2;P2;SDS_P1;SDS_P2;PMS_P1;PMS_P2;Temp;Humidity;BMP_temperature;BMP_pressure;BME280_temperature;BME280_humidity;BME280_pressure;Samples;Min_cycle;Max_cycle;Signal;HPM_P1;HPM_P2
2021/09/09 00:00:45;;;;;;;10.68;7.82;;;16.90;96.80;;;;;;5101320;27;20039;-76
2021/09/09 00:03:11;;;;;;;11.93;8.13;;;16.80;96.80;;;;;;5108448;27;20047;-76
2021/09/09 00:05:37;;;;;;;10.52;7.75;;;16.80;96.80;;;;;;5070288;27;20035;-76
2021/09/09 00:08:06;;;;;;;9.02;7.85;;;16.80;96.90;;;;;;5085458;27;20512;-76
2021/09/09 00:10:32;;;;;;;12.50;8.40;;;16.70;96.90;;;;;;5102953;27;20032;-75
2021/09/09 00:12:58;;;;;;;9.98;8.30;;;16.70;97.00;;;;;;5101003;27;20482;-76
2021/09/09 00:15:23;;;;;;;10.65;8.70;;;16.70;97.00;;;;;;5103769;27;20074;-76
2021/09/09 00:17:49;;;;;;;10.85;9.27;;;16.70;97.10;;;;;;5088191;27;20535;-76
2021/09/09 00:20:15;;;;;;;11.50;8.35;;;16.70;97.20;;;;;;5089964;27;20051;-76
2021/09/09 00:22:41;;;;;;;12.32;9.38;;;16.70;97.20;;;;;;5086615;27;20035;-75
2021/09/09 00:25:08;;;;;;;10.63;8.32;;;16.70;97.20;;;;;;5086665;27;20078;-76
2021/09/09 00:27:37;;;;;;;10.65;8.77;;;16.70;97.30;;;;;;5102360;27;20047;-76
2021/09/09 00:30:04;;;;;;;10.95;7.82;;;16.70;97.30;;;;;;5087207;27;20050;-75
2021/09/09 00:32:29;;;;;;;10.52;8.88;;;16.70;97.30;;;;;;5053156;27;20062;-76
2021/09/09 00:34:55;;;;;;;10.82;8.65;;;16.70;97.30;;;;;;5107317;27;20524;-76
2021/09/09 00:37:21;;;;;;;10.60;8.98;;;16.70;97.30;;;;;;5105198;27;20035;-75
2021/09/09 00:39:47;;;;;;;10.75;8.95;;;16.70;97.30;;;;;;5121890;27;20134;-76
2021/09/09 00:42:13;;;;;;;12.48;9.00;;;16.70;97.40;;;;;;5073343;27;20122;-76
2021/09/09 00:44:38;;;;;;;11.82;8.60;;;16.70;97.40;;;;;;5087627;27;20134;-76
2021/09/09 00:47:09;;;;;;;10.63;8.07;;;16.60;97.50;;;;;;5088440;27;20095;-77
2021/09/09 00:49:37;;;;;;;12.23;8.48;;;16.60;97.50;;;;;;5084919;27;20118;-76
2021/09/09 00:52:04;;;;;;;9.73;8.73;;;16.50;97.50;;;;;;5108335;27;20184;-75
2021/09/09 00:54:30;;;;;;;12.07;9.60;;;16.50;97.60;;;;;;5098622;27;20110;-76
2021/09/09 00:56:56;;;;;;;12.88;9.68;;;16.50;97.70;;;;;;5089146;27;20118;-76
2021/09/09 00:59:27;;;;;;;10.02;8.13;;;16.50;97.70;;;;;;5084237;27;20743;-76
2021/09/09 01:01:53;;;;;;;10.90;8.63;;;16.50;97.80;;;;;;5102564;28;20055;-75
2021/09/09 01:04:22;;;;;;;12.25;9.30;;;16.50;97.70;;;;;;5071537;28;20485;-75
2021/09/09 01:06:48;;;;;;;12.65;9.50;;;16.50;97.80;;;;;;5084121;27;20079;-76
2021/09/09 01:09:14;;;;;;;10.35;8.60;;;16.40;97.80;;;;;;5106552;28;20039;-76
2021/09/09 01:11:40;;;;;;;12.98;9.48;;;16.40;97.80;;;;;;5104746;28;20050;-76
2021/09/09 01:14:15;;;;;;;10.27;8.48;;;16.30;97.80;;;;;;5087013;28;20396;-76
2021/09/09 01:16:42;;;;;;;14.70;10.00;;;16.30;98.00;;;;;;5083901;27;20121;-76
2021/09/09 01:19:09;;;;;;;12.45;9.95;;;16.20;98.10;;;;;;5104420;28;20478;-76
2021/09/09 01:21:36;;;;;;;11.73;9.27;;;16.20;98.20;;;;;;5105678;28;20122;-76
2021/09/09 01:24:06;;;;;;;10.10;8.60;;;16.20;98.20;;;;;;5067683;27;20500;-76
2021/09/09 01:26:50;;;;;;;12.35;9.07;;;16.10;98.30;;;;;;5085381;28;20047;-76
2021/09/09 01:29:16;;;;;;;12.20;10.55;;;16.10;98.40;;;;;;5101314;27;20078;-77
2021/09/09 01:31:42;;;;;;;11.05;9.85;;;16.10;98.50;;;;;;5107717;28;20075;-76
2021/09/09 01:34:08;;;;;;;11.88;10.00;;;16.00;98.50;;;;;;5106078;27;20040;-77
2021/09/09 01:36:37;;;;;;;15.45;9.50;;;16.00;98.60;;;;;;5083266;28;20039;-76
2021/09/09 01:39:03;;;;;;;12.05;9.82;;;16.00;98.70;;;;;;5072125;28;20035;-76
2021/09/09 01:41:28;;;;;;;11.13;9.95;;;16.00;98.80;;;;;;5065077;28;20390;-77
2021/09/09 01:43:54;;;;;;;11.45;10.25;;;15.90;99.00;;;;;;5086847;28;20572;-76
2021/09/09 01:46:20;;;;;;;12.02;9.43;;;15.90;99.00;;;;;;5102460;28;20043;-76
2021/09/09 01:48:46;;;;;;;11.93;9.52;;;15.90;99.00;;;;;;5105328;28;20079;-76
2021/09/09 01:51:12;;;;;;;11.88;10.60;;;15.90;99.00;;;;;;5053175;27;20051;-76
2021/09/09 01:53:37;;;;;;;12.25;9.25;;;15.80;99.00;;;;;;5081531;28;20135;-76
2021/09/09 01:56:03;;;;;;;13.95;10.65;;;15.80;99.10;;;;;;5084369;28;20042;-77
2021/09/09 01:58:29;;;;;;;12.75;10.13;;;15.70;99.20;;;;;;5104339;27;20043;-77
2021/09/09 02:01:02;;;;;;;12.73;10.60;;;15.70;99.30;;;;;;5081747;28;20858;-77
2021/09/09 02:03:28;;;;;;;13.15;9.77;;;15.70;99.50;;;;;;5114707;27;20126;-76
2021/09/09 02:05:54;;;;;;;12.18;10.35;;;15.60;99.70;;;;;;5070552;28;20498;-76
2021/09/09 02:08:20;;;;;;;13.40;10.10;;;15.70;99.60;;;;;;5086891;28;20059;-76
2021/09/09 02:10:46;;;;;;;12.95;10.73;;;15.60;99.70;;;;;;5106591;27;20047;-76
2021/09/09 02:13:11;;;;;;;14.50;10.63;;;15.60;99.70;;;;;;5117941;27;20130;-77
2021/09/09 02:15:37;;;;;;;13.45;11.57;;;15.60;99.80;;;;;;5107017;27;20027;-76
2021/09/09 02:18:05;;;;;;;13.68;11.13;;;15.60;99.80;;;;;;5087000;27;20051;-77
2021/09/09 02:20:31;;;;;;;15.88;11.38;;;15.70;99.90;;;;;;5087240;27;20118;-76
2021/09/09 02:22:57;;;;;;;13.63;12.18;;;15.70;99.90;;;;;;5074128;27;20134;-77
2021/09/09 02:25:23;;;;;;;16.33;11.85;;;15.70;99.90;;;;;;5087220;27;20035;-77
2021/09/09 02:27:49;;;;;;;14.73;11.00;;;15.70;99.90;;;;;;5081428;27;20092;-77
2021/09/09 02:30:14;;;;;;;14.40;11.90;;;15.70;99.90;;;;;;5056789;27;20090;-77
2021/09/09 02:32:40;;;;;;;12.77;10.95;;;15.70;99.90;;;;;;5107829;27;20165;-76
2021/09/09 02:35:07;;;;;;;13.40;11.57;;;15.70;99.90;;;;;;5091183;27;20083;-77
2021/09/09 02:37:32;;;;;;;13.73;12.13;;;15.70;99.90;;;;;;5088567;27;20576;-77
2021/09/09 02:39:58;;;;;;;12.25;10.80;;;15.70;99.90;;;;;;5075612;27;20039;-76
2021/09/09 02:42:25;;;;;;;13.00;11.60;;;15.70;99.90;;;;;;5108064;27;20130;-76
2021/09/09 02:44:51;;;;;;;13.05;11.18;;;15.60;99.90;;;;;;5122697;27;20433;-77
2021/09/09 02:47:17;;;;;;;12.68;11.25;;;15.60;99.90;;;;;;5102020;27;20095;-77
2021/09/09 02:49:42;;;;;;;15.25;13.13;;;15.50;99.90;;;;;;5097701;27;20544;-76
2021/09/09 02:52:08;;;;;;;14.15;11.90;;;15.50;99.90;;;;;;5088077;27;20042;-76
2021/09/09 02:54:37;;;;;;;12.88;11.52;;;15.40;99.90;;;;;;5087097;27;20031;-76
2021/09/09 02:57:06;;;;;;;14.45;11.75;;;15.40;99.90;;;;;;5087818;27;20043;-77
2021/09/09 02:59:32;;;;;;;15.15;12.35;;;15.40;99.90;;;;;;5072023;27;20051;-76
2021/09/09 03:01:57;;;;;;;13.23;11.73;;;15.40;99.90;;;;;;5085767;27;20035;-76
2021/09/09 03:04:23;;;;;;;17.33;13.45;;;15.30;99.90;;;;;;5088563;27;20301;-76
2021/09/09 03:06:49;;;;;;;12.90;11.20;;;15.30;99.90;;;;;;5059253;27;20035;-76
2021/09/09 03:09:15;;;;;;;13.57;10.98;;;15.30;99.90;;;;;;5070900;27;20095;-76
2021/09/09 03:11:40;;;;;;;13.85;11.20;;;15.30;99.90;;;;;;5085089;27;20050;-76
2021/09/09 03:14:06;;;;;;;14.68;13.18;;;15.20;99.90;;;;;;5109394;27;20040;-77
2021/09/09 03:16:32;;;;;;;14.45;12.85;;;15.20;99.90;;;;;;5118094;27;20051;-76
2021/09/09 03:18:57;;;;;;;13.60;12.20;;;15.20;99.90;;;;;;5104568;27;20055;-77
2021/09/09 03:21:23;;;;;;;14.23;11.55;;;15.10;99.90;;;;;;5085549;27;20054;-76
2021/09/09 03:23:49;;;;;;;11.88;10.68;;;15.10;99.90;;;;;;5103502;27;20035;-76
2021/09/09 03:26:15;;;;;;;13.32;10.75;;;15.10;99.90;;;;;;5089789;27;20114;-76
2021/09/09 03:28:41;;;;;;;14.65;10.93;;;15.10;99.90;;;;;;5070066;27;20046;-76
2021/09/09 03:31:06;;;;;;;13.55;11.07;;;15.10;99.90;;;;;;5092560;27;20050;-77
2021/09/09 03:33:32;;;;;;;13.63;12.23;;;15.00;99.90;;;;;;5104049;27;20678;-77
2021/09/09 03:35:58;;;;;;;15.05;11.68;;;15.00;99.90;;;;;;5105868;27;20397;-77
2021/09/09 03:38:24;;;;;;;14.02;11.15;;;14.90;99.90;;;;;;5106337;27;20081;-76
2021/09/09 03:40:50;;;;;;;13.60;11.50;;;14.90;99.90;;;;;;5133626;27;20039;-77
2021/09/09 03:43:15;;;;;;;14.40;11.57;;;14.90;99.90;;;;;;5072949;27;20043;-76
2021/09/09 03:45:41;;;;;;;15.35;11.93;;;14.90;99.90;;;;;;5087622;27;20046;-76
2021/09/09 03:48:07;;;;;;;13.50;11.52;;;14.90;99.90;;;;;;5087999;27;20070;-77
2021/09/09 03:50:36;;;;;;;14.40;11.25;;;14.90;99.90;;;;;;5086324;27;20130;-77
2021/09/09 03:53:02;;;;;;;13.75;12.35;;;14.80;99.90;;;;;;5086959;27;20057;-77
2021/09/09 03:55:28;;;;;;;16.60;12.43;;;14.80;99.90;;;;;;5103141;27;20529;-77
2021/09/09 03:57:54;;;;;;;14.80;12.82;;;14.80;99.90;;;;;;5102501;27;20035;-77
2021/09/09 04:00:20;;;;;;;13.68;12.25;;;14.80;99.90;;;;;;5067430;27;20560;-77
2021/09/09 04:02:46;;;;;;;15.02;12.02;;;14.80;99.90;;;;;;5102737;27;20035;-77
2021/09/09 04:05:12;;;;;;;16.20;14.15;;;14.70;99.90;;;;;;5088063;27;20078;-77
2021/09/09 04:07:38;;;;;;;17.40;13.48;;;14.70;99.90;;;;;;5071368;27;20035;-77
2021/09/09 04:10:07;;;;;;;14.98;13.48;;;14.70;99.90;;;;;;5091670;27;20050;-76
2021/09/09 04:12:35;;;;;;;18.13;14.73;;;14.70;99.90;;;;;;5102157;27;20047;-76
2021/09/09 04:15:02;;;;;;;17.23;15.43;;;14.60;99.90;;;;;;5072752;27;20031;-77
2021/09/09 04:17:29;;;;;;;14.68;13.18;;;14.60;99.90;;;;;;5089843;27;20039;-76
2021/09/09 04:19:56;;;;;;;14.15;12.73;;;14.60;99.90;;;;;;5089473;27;20043;-77
2021/09/09 04:22:22;;;;;;;20.02;16.48;;;14.60;99.90;;;;;;5091100;27;20054;-77
2021/09/09 04:24:47;;;;;;;20.88;17.02;;;14.60;99.90;;;;;;5084143;27;20119;-76
2021/09/09 04:27:13;;;;;;;16.13;14.32;;;14.60;99.90;;;;;;5090988;27;20118;-76
2021/09/09 04:29:39;;;;;;;15.35;12.60;;;14.50;99.90;;;;;;5104211;27;20027;-76
2021/09/09 04:32:05;;;;;;;16.05;13.15;;;14.50;99.90;;;;;;5091890;27;20635;-77
2021/09/09 04:34:31;;;;;;;16.77;14.65;;;14.50;99.90;;;;;;5104473;27;20058;-77
2021/09/09 04:36:57;;;;;;;18.25;15.10;;;14.50;99.90;;;;;;5105061;27;20512;-77
2021/09/09 04:39:22;;;;;;;19.75;15.73;;;14.50;99.90;;;;;;5105952;28;20393;-77
2021/09/09 04:41:49;;;;;;;18.00;16.10;;;14.50;99.90;;;;;;5086215;27;20035;-76
2021/09/09 04:44:14;;;;;;;19.48;17.25;;;14.50;99.90;;;;;;5087905;27;20047;-77
2021/09/09 04:46:40;;;;;;;17.38;15.55;;;14.50;99.90;;;;;;5104420;27;20048;-76
2021/09/09 04:49:06;;;;;;;16.92;15.07;;;14.50;99.90;;;;;;5083157;27;20049;-76
2021/09/09 04:51:32;;;;;;;15.70;14.10;;;14.50;99.90;;;;;;5087553;27;20125;-77
2021/09/09 04:53:58;;;;;;;15.48;13.38;;;14.40;99.90;;;;;;5101810;27;20043;-76
2021/09/09 04:56:23;;;;;;;18.98;16.38;;;14.40;99.90;;;;;;5085332;27;20528;-76
2021/09/09 04:58:49;;;;;;;17.05;14.30;;;14.40;99.90;;;;;;5054602;28;20050;-77
2021/09/09 05:01:18;;;;;;;20.05;15.32;;;14.40;99.90;;;;;;5067734;28;20191;-76
2021/09/09 05:03:43;;;;;;;17.63;13.68;;;14.40;99.90;;;;;;5086522;28;20131;-76
2021/09/09 05:06:09;;;;;;;17.98;15.77;;;14.40;99.90;;;;;;5099153;27;20071;-76
2021/09/09 05:08:35;;;;;;;21.02;18.02;;;14.40;99.90;;;;;;5099621;27;20509;-77
2021/09/09 05:11:01;;;;;;;20.63;15.75;;;14.40;99.90;;;;;;5101479;28;20038;-76
2021/09/09 05:13:27;;;;;;;21.23;16.40;;;14.40;99.90;;;;;;5114353;27;20066;-77
2021/09/09 05:15:52;;;;;;;20.27;16.58;;;14.40;99.90;;;;;;5104467;28;20558;-77
2021/09/09 05:18:27;;;;;;;18.33;15.93;;;14.40;99.90;;;;;;5086639;28;20064;-77
2021/09/09 05:20:52;;;;;;;19.15;14.50;;;14.50;99.90;;;;;;5134987;27;20077;-77
2021/09/09 05:23:21;;;;;;;17.20;14.52;;;14.50;99.90;;;;;;5102593;28;20051;-76
2021/09/09 05:25:47;;;;;;;17.23;15.20;;;14.50;99.90;;;;;;5121302;27;20088;-76
2021/09/09 05:28:13;;;;;;;20.50;16.98;;;14.50;99.90;;;;;;5100653;27;20496;-77
2021/09/09 05:30:38;;;;;;;21.10;18.30;;;14.50;99.90;;;;;;5066984;28;20047;-76
2021/09/09 05:33:04;;;;;;;23.90;17.50;;;14.50;99.90;;;;;;5084382;28;20146;-77
2021/09/09 05:35:30;;;;;;;20.98;18.77;;;14.40;99.90;;;;;;5087224;28;20049;-77
2021/09/09 05:37:56;;;;;;;24.38;18.77;;;14.50;99.90;;;;;;5082611;27;20045;-77
2021/09/09 05:40:22;;;;;;;20.80;18.55;;;14.40;99.90;;;;;;5131704;27;20441;-77
2021/09/09 05:42:47;;;;;;;21.70;18.63;;;14.50;99.90;;;;;;5089398;28;20050;-77
2021/09/09 05:45:13;;;;;;;18.45;16.13;;;14.50;99.90;;;;;;5113920;27;20111;-77
2021/09/09 05:47:39;;;;;;;21.75;18.35;;;14.50;99.90;;;;;;5069482;28;20603;-78
2021/09/09 05:50:06;;;;;;;22.25;18.00;;;14.50;99.90;;;;;;5086317;27;20039;-77
2021/09/09 05:52:32;;;;;;;24.15;21.52;;;14.60;99.90;;;;;;5087368;27;20054;-76
2021/09/09 05:54:58;;;;;;;26.85;19.83;;;14.70;99.90;;;;;;5085416;27;20035;-76
2021/09/09 05:57:24;;;;;;;24.25;21.05;;;14.80;99.90;;;;;;5088573;27;20571;-77
2021/09/09 05:59:51;;;;;;;22.13;18.10;;;14.80;99.90;;;;;;5093093;27;20039;-76
2021/09/09 06:02:18;;;;;;;23.98;18.88;;;14.80;99.90;;;;;;5071584;28;20108;-76
2021/09/09 06:04:45;;;;;;;23.58;19.52;;;14.80;99.90;;;;;;5124111;27;20104;-76
2021/09/09 06:07:14;;;;;;;20.90;18.45;;;14.90;99.90;;;;;;5071817;27;20053;-76
2021/09/09 06:09:41;;;;;;;24.42;20.42;;;14.90;99.90;;;;;;5103349;27;20039;-76
2021/09/09 06:12:07;;;;;;;24.52;21.92;;;14.90;99.90;;;;;;5092070;27;20058;-76
2021/09/09 06:14:37;;;;;;;21.85;19.55;;;15.00;99.90;;;;;;5091627;27;20054;-76
2021/09/09 06:17:05;;;;;;;21.70;18.55;;;15.10;99.90;;;;;;5111154;27;20043;-76
2021/09/09 06:19:33;;;;;;;21.50;19.20;;;15.20;99.90;;;;;;5086574;27;20055;-77
2021/09/09 06:22:01;;;;;;;;;;;15.20;99.90;;;;;;5091584;27;20043;-77
2021/09/09 06:24:27;;;;;;;24.02;19.92;;;15.30;99.90;;;;;;5107994;27;20362;-77
2021/09/09 06:26:53;;;;;;;22.35;19.95;;;15.30;99.90;;;;;;5087788;27;20559;-77
2021/09/09 06:29:22;;;;;;;22.02;18.70;;;15.40;99.90;;;;;;5074176;27;20043;-76
2021/09/09 06:31:48;;;;;;;18.58;16.58;;;15.50;99.90;;;;;;5088365;27;20059;-76
2021/09/09 06:34:14;;;;;;;23.38;19.58;;;15.50;99.90;;;;;;5104808;27;20085;-77
2021/09/09 06:36:40;;;;;;;21.85;18.27;;;15.60;99.90;;;;;;5087647;27;20521;-77
2021/09/09 06:39:06;;;;;;;23.30;19.38;;;15.70;99.90;;;;;;5090983;27;20103;-77
2021/09/09 06:41:32;;;;;;;21.30;18.98;;;15.70;99.90;;;;;;5101152;27;20043;-77
2021/09/09 06:44:01;;;;;;;24.92;19.33;;;15.80;99.90;;;;;;5075692;27;20031;-77
2021/09/09 06:46:30;;;;;;;21.85;19.55;;;15.90;99.90;;;;;;5131984;27;20039;-77
2021/09/09 06:48:56;;;;;;;23.15;20.65;;;16.00;99.90;;;;;;5106650;27;20031;-75
2021/09/09 06:51:22;;;;;;;22.63;18.55;;;16.00;99.90;;;;;;5088719;27;20553;-77
2021/09/09 06:53:48;;;;;;;22.20;18.80;;;16.20;99.90;;;;;;5086632;27;20945;-77
2021/09/09 06:56:14;;;;;;;23.15;20.30;;;16.20;99.90;;;;;;5084511;27;20043;-77
2021/09/09 06:58:40;;;;;;;22.95;19.05;;;16.30;99.90;;;;;;5097144;27;20073;-77
2021/09/09 07:01:06;;;;;;;25.90;21.75;;;16.40;99.90;;;;;;5100947;27;20047;-77
2021/09/09 07:03:31;;;;;;;24.45;21.60;;;16.50;99.90;;;;;;5089445;27;20039;-77
2021/09/09 07:05:57;;;;;;;21.95;18.75;;;16.60;99.90;;;;;;5107773;27;20031;-76
2021/09/09 07:08:23;;;;;;;27.83;23.05;;;16.70;99.90;;;;;;5072598;27;20042;-77
2021/09/09 07:10:49;;;;;;;28.02;23.25;;;16.80;99.90;;;;;;5105631;27;20126;-77
2021/09/09 07:13:18;;;;;;;25.13;22.42;;;17.00;99.90;;;;;;5090686;27;20474;-77
2021/09/09 07:15:44;;;;;;;26.13;23.23;;;17.10;99.90;;;;;;5090271;27;20046;-76
2021/09/09 07:18:11;;;;;;;25.65;21.58;;;17.30;99.90;;;;;;5085381;27;20561;-76
2021/09/09 07:20:37;;;;;;;25.88;23.15;;;17.50;99.90;;;;;;5118141;27;20722;-77
2021/09/09 07:23:06;;;;;;;23.17;20.67;;;17.60;99.90;;;;;;5098241;27;20055;-76
2021/09/09 07:25:32;;;;;;;24.00;20.80;;;17.70;99.90;;;;;;5087601;27;20454;-77
2021/09/09 07:28:01;;;;;;;24.20;21.67;;;17.90;99.90;;;;;;5089769;27;20424;-76
2021/09/09 07:30:27;;;;;;;21.90;19.17;;;18.00;99.90;;;;;;5138141;27;20039;-76
2021/09/09 07:32:53;;;;;;;22.80;20.40;;;18.20;99.90;;;;;;5100223;27;20058;-76
2021/09/09 07:35:18;;;;;;;24.33;21.73;;;18.30;99.90;;;;;;5103901;27;20130;-76
2021/09/09 07:37:46;;;;;;;22.17;19.48;;;18.50;99.90;;;;;;5071199;27;20846;-77
2021/09/09 07:40:12;;;;;;;21.08;18.77;;;18.60;99.90;;;;;;5084552;27;20588;-77
2021/09/09 07:42:38;;;;;;;21.88;19.27;;;18.80;99.90;;;;;;5105731;27;20073;-76
2021/09/09 07:45:07;;;;;;;23.60;20.17;;;18.90;99.90;;;;;;5077850;28;20039;-76
2021/09/09 07:47:36;;;;;;;22.05;18.67;;;19.10;99.50;;;;;;5069660;28;20039;-77
2021/09/09 07:50:07;;;;;;;21.52;19.25;;;19.30;98.90;;;;;;5098191;28;20094;-76
2021/09/09 07:52:33;;;;;;;22.95;18.77;;;19.40;98.60;;;;;;5101539;27;20105;-77
2021/09/09 07:55:09;;;;;;;20.35;17.05;;;19.60;98.30;;;;;;5066448;28;20527;-77
2021/09/09 07:57:38;;;;;;;20.35;17.27;;;19.80;98.10;;;;;;5068264;28;20086;-77
2021/09/09 08:00:07;;;;;;;19.27;17.33;;;20.00;98.00;;;;;;5083130;28;20126;-75
2021/09/09 08:02:36;;;;;;;21.17;17.13;;;20.20;97.70;;;;;;5063607;28;20383;-76
2021/09/09 08:05:02;;;;;;;18.75;16.77;;;20.50;97.20;;;;;;5047466;28;20031;-76
2021/09/09 08:07:28;;;;;;;19.85;17.60;;;20.60;96.80;;;;;;5084699;28;20046;-77
2021/09/09 08:09:53;;;;;;;20.45;17.15;;;20.80;96.60;;;;;;5050550;28;20127;-77
2021/09/09 08:12:19;;;;;;;19.73;17.35;;;21.00;96.10;;;;;;5062622;28;20071;-76
2021/09/09 08:14:45;;;;;;;20.75;17.55;;;21.10;95.70;;;;;;5048278;28;20192;-76
2021/09/09 08:17:14;;;;;;;19.27;17.17;;;21.20;95.40;;;;;;5068230;28;20055;-77
2021/09/09 08:19:40;;;;;;;18.63;16.63;;;21.40;95.20;;;;;;5085188;28;20061;-76
2021/09/09 08:22:09;;;;;;;17.15;15.35;;;21.50;94.90;;;;;;5071003;27;20047;-76
2021/09/09 08:24:35;;;;;;;18.02;16.13;;;21.60;94.90;;;;;;5088745;27;20039;-76
2021/09/09 08:27:01;;;;;;;17.33;15.50;;;21.80;94.50;;;;;;5063488;27;20045;-76
2021/09/09 08:29:26;;;;;;;17.23;15.38;;;21.90;94.30;;;;;;5072615;27;20088;-76
2021/09/09 08:31:53;;;;;;;20.23;15.38;;;22.00;93.90;;;;;;5132447;27;20043;-76
2021/09/09 08:34:18;;;;;;;16.30;13.98;;;22.10;93.80;;;;;;5102508;27;20039;-76
2021/09/09 08:36:44;;;;;;;18.00;15.18;;;22.30;93.60;;;;;;5085863;27;20035;-76
2021/09/09 08:39:12;;;;;;;16.83;14.40;;;22.50;93.60;;;;;;5085037;27;20055;-76
2021/09/09 08:41:38;;;;;;;17.38;14.13;;;22.60;93.20;;;;;;5085871;27;20382;-76
2021/09/09 08:44:06;;;;;;;16.50;13.98;;;22.70;92.80;;;;;;5084380;27;20059;-76
2021/09/09 08:46:32;;;;;;;16.15;14.07;;;22.80;92.70;;;;;;5085008;27;20051;-76
2021/09/09 08:48:59;;;;;;;17.92;14.75;;;22.90;92.40;;;;;;5087920;27;20045;-76
2021/09/09 08:51:25;;;;;;;15.45;13.93;;;23.00;92.80;;;;;;5089214;27;20449;-74
2021/09/09 08:53:56;;;;;;;13.90;12.40;;;23.20;92.40;;;;;;5104833;27;20126;-75
2021/09/09 08:56:21;;;;;;;15.50;13.55;;;23.40;92.00;;;;;;5105584;27;20046;-75
2021/09/09 08:58:47;;;;;;;15.02;12.55;;;23.50;91.80;;;;;;5068456;27;20590;-75
2021/09/09 09:01:17;;;;;;;16.15;14.10;;;23.70;91.60;;;;;;5087869;27;20047;-75
2021/09/09 09:03:59;;;;;;;16.00;14.40;;;23.80;91.50;;;;;;5101246;28;20143;-75
2021/09/09 09:06:25;;;;;;;16.92;14.35;;;23.90;90.90;;;;;;5090161;28;20076;-75
2021/09/09 09:08:57;;;;;;;14.18;12.75;;;24.00;90.80;;;;;;5101317;27;20047;-75
2021/09/09 09:11:25;;;;;;;15.70;13.98;;;24.10;90.30;;;;;;5087205;27;20772;-75
2021/09/09 09:13:50;;;;;;;18.50;14.77;;;24.10;90.00;;;;;;5067983;28;20636;-75
2021/09/09 09:16:16;;;;;;;17.38;12.65;;;24.20;90.20;;;;;;5088147;28;20122;-75
2021/09/09 09:18:43;;;;;;;16.63;14.70;;;24.30;90.30;;;;;;5085003;28;20054;-75
2021/09/09 09:21:09;;;;;;;15.75;12.98;;;24.40;89.50;;;;;;5105772;27;20061;-75
2021/09/09 09:23:35;;;;;;;15.27;12.52;;;24.40;87.80;;;;;;5089818;28;20051;-75
2021/09/09 09:26:03;;;;;;;15.50;12.85;;;24.40;87.50;;;;;;5087715;27;20051;-76
2021/09/09 09:28:40;;;;;;;15.68;12.93;;;24.50;88.00;;;;;;5078843;27;20122;-75
2021/09/09 09:31:15;;;;;;;17.02;12.88;;;24.60;88.50;;;;;;5107703;27;20087;-75
2021/09/09 09:33:44;;;;;;;15.35;13.75;;;24.70;88.00;;;;;;5099633;27;20086;-75
2021/09/09 09:36:21;;;;;;;15.48;12.40;;;24.80;85.70;;;;;;5103825;27;20150;-75
2021/09/09 09:38:48;;;;;;;14.88;12.20;;;24.90;85.90;;;;;;5104740;27;20031;-74
2021/09/09 09:41:17;;;;;;;16.80;12.35;;;24.90;83.80;;;;;;5090868;27;20088;-74
2021/09/09 09:43:55;;;;;;;14.75;12.13;;;25.00;85.20;;;;;;5098114;27;20043;-75
2021/09/09 09:46:31;;;;;;;14.15;12.48;;;25.10;85.10;;;;;;5141794;27;20031;-75
2021/09/09 09:49:16;;;;;;;19.15;12.45;;;25.30;84.30;;;;;;5138784;27;20073;-75
2021/09/09 09:51:44;;;;;;;14.45;12.88;;;25.40;83.90;;;;;;5106065;27;20452;-75
2021/09/09 09:54:11;;;;;;;12.70;11.40;;;25.50;82.90;;;;;;5105825;27;20053;-75
2021/09/09 09:56:39;;;;;;;14.48;10.90;;;25.50;82.40;;;;;;5088001;27;20050;-75
2021/09/09 09:59:04;;;;;;;15.02;11.35;;;25.60;83.80;;;;;;5110629;27;20525;-76
2021/09/09 10:01:31;;;;;;;11.88;10.60;;;25.70;82.60;;;;;;5090318;27;20061;-76
2021/09/09 10:04:02;;;;;;;13.50;11.10;;;25.80;81.50;;;;;;5071830;27;20123;-77
2021/09/09 10:06:30;;;;;;;13.85;10.88;;;25.80;81.50;;;;;;5122613;27;20741;-76
2021/09/09 10:08:57;;;;;;;11.50;10.30;;;25.90;80.90;;;;;;5072275;27;20066;-76
2021/09/09 10:11:27;;;;;;;13.73;10.45;;;26.00;80.90;;;;;;5072326;27;20048;-76
2021/09/09 10:13:55;;;;;;;12.77;10.38;;;26.20;80.40;;;;;;5088906;27;20054;-76
2021/09/09 10:16:23;;;;;;;12.57;11.23;;;26.20;79.10;;;;;;5087378;27;20074;-76
2021/09/09 10:18:49;;;;;;;11.57;10.38;;;26.30;77.10;;;;;;5083762;27;20528;-75
2021/09/09 10:21:38;;;;;;;11.88;10.35;;;26.50;78.90;;;;;;5081257;27;20082;-76
2021/09/09 10:24:31;;;;;;;10.97;9.40;;;26.50;78.70;;;;;;5102267;27;20047;-76
2021/09/09 10:27:20;;;;;;;14.95;9.98;;;26.60;76.20;;;;;;5097526;27;20055;-75
2021/09/09 10:30:01;;;;;;;12.07;9.75;;;26.60;76.10;;;;;;5092988;27;20046;-76
2021/09/09 10:32:30;;;;;;;11.80;10.07;;;26.70;76.30;;;;;;5102916;27;20126;-76
2021/09/09 10:35:14;;;;;;;11.93;10.27;;;26.80;74.80;;;;;;5107238;27;20054;-76
2021/09/09 10:37:52;;;;;;;12.40;9.93;;;26.90;74.20;;;;;;5089229;28;20043;-76
2021/09/09 10:40:38;;;;;;;11.80;9.35;;;26.90;71.00;;;;;;5087833;27;20047;-75
2021/09/09 10:43:34;;;;;;;11.60;9.90;;;26.90;70.50;;;;;;5081204;28;20130;-75
2021/09/09 10:46:08;;;;;;;10.57;8.77;;;26.90;71.00;;;;;;5083758;27;20047;-76
2021/09/09 10:48:34;;;;;;;11.20;9.23;;;27.00;72.10;;;;;;5078881;28;20506;-76
2021/09/09 10:51:14;;;;;;;10.73;9.68;;;27.20;72.90;;;;;;5095944;27;20052;-76
2021/09/09 10:53:43;;;;;;;10.35;9.15;;;27.30;69.80;;;;;;5113920;27;20472;-76
2021/09/09 10:56:15;;;;;;;10.45;9.18;;;27.30;68.20;;;;;;5105816;27;20039;-77
2021/09/09 10:58:42;;;;;;;10.77;9.38;;;27.30;67.30;;;;;;5102423;27;20057;-75
2021/09/09 11:01:08;;;;;;;11.73;9.35;;;27.30;65.00;;;;;;5082016;28;20123;-76
2021/09/09 11:03:40;;;;;;;10.15;9.15;;;27.40;65.20;;;;;;5113336;27;20051;-77
2021/09/09 11:06:08;;;;;;;11.85;9.25;;;27.40;63.30;;;;;;5103734;27;20134;-75
2021/09/09 11:08:35;;;;;;;11.48;9.05;;;27.40;64.30;;;;;;5091747;27;20043;-75
2021/09/09 11:11:02;;;;;;;13.45;9.00;;;27.50;64.90;;;;;;5085338;27;20125;-75
2021/09/09 11:13:32;;;;;;;10.73;9.48;;;27.50;65.40;;;;;;5094029;28;20044;-75
2021/09/09 11:15:57;;;;;;;9.43;8.45;;;27.60;61.50;;;;;;5097621;27;20039;-75
2021/09/09 11:18:32;;;;;;;13.00;8.88;;;27.60;62.70;;;;;;5079166;28;20771;-75
2021/09/09 11:21:08;;;;;;;10.35;9.25;;;27.70;61.80;;;;;;5095736;27;20042;-75
2021/09/09 11:23:37;;;;;;;11.32;9.05;;;27.70;62.30;;;;;;5086061;27;20096;-75
2021/09/09 11:26:10;;;;;;;10.57;8.57;;;27.80;60.30;;;;;;5077242;27;20676;-75
2021/09/09 11:28:36;;;;;;;10.52;9.25;;;27.80;59.80;;;;;;5097408;27;20096;-75
2021/09/09 11:31:10;;;;;;;12.45;8.40;;;27.80;61.10;;;;;;5135908;27;20374;-74
2021/09/09 11:34:08;;;;;;;10.73;9.63;;;27.80;60.30;;;;;;5100720;27;20426;-75
2021/09/09 11:36:39;;;;;;;12.23;8.95;;;27.90;59.30;;;;;;5056121;28;20071;-75
2021/09/09 11:39:16;;;;;;;11.00;8.93;;;27.90;60.00;;;;;;5076943;27;20053;-75
2021/09/09 11:41:43;;;;;;;8.55;7.75;;;28.00;62.90;;;;;;5092271;28;20071;-75
2021/09/09 11:44:33;;;;;;;9.30;8.35;;;28.10;60.80;;;;;;5068675;28;20074;-74
2021/09/09 11:47:07;;;;;;;9.23;7.80;;;28.20;62.40;;;;;;5080126;27;20046;-75
2021/09/09 11:49:37;;;;;;;10.45;8.25;;;28.30;60.00;;;;;;5083771;27;20042;-75
2021/09/09 11:52:05;;;;;;;14.10;9.43;;;28.30;58.10;;;;;;5087964;27;20480;-75
2021/09/09 11:54:37;;;;;;;10.18;9.15;;;28.30;57.90;;;;;;5107403;27;20562;-75
2021/09/09 11:57:04;;;;;;;11.65;8.45;;;28.40;59.50;;;;;;5083329;27;20146;-75
2021/09/09 11:59:31;;;;;;;12.43;8.88;;;28.40;57.80;;;;;;5079930;28;20047;-75
2021/09/09 12:02:05;;;;;;;11.23;8.02;;;28.30;57.20;;;;;;5075855;27;20130;-75
2021/09/09 12:04:32;;;;;;;9.55;8.10;;;28.30;56.50;;;;;;5120266;27;20457;-75
2021/09/09 12:06:58;;;;;;;11.23;8.07;;;28.30;56.10;;;;;;5070979;27;20131;-75
2021/09/09 12:09:31;;;;;;;10.48;9.43;;;28.30;55.80;;;;;;5077088;27;20075;-75
2021/09/09 12:12:04;;;;;;;11.02;8.35;;;28.10;55.80;;;;;;5095863;27;20061;-75
2021/09/09 12:14:31;;;;;;;9.50;8.60;;;27.90;57.90;;;;;;5087718;28;20047;-75
2021/09/09 12:17:13;;;;;;;9.82;8.45;;;27.90;57.40;;;;;;5090726;27;20051;-74
2021/09/09 12:20:06;;;;;;;9.18;8.15;;;27.90;58.40;;;;;;5101777;27;20075;-75
2021/09/09 12:22:56;;;;;;;10.27;8.80;;;27.90;58.60;;;;;;5136446;27;20092;-74
2021/09/09 12:25:28;;;;;;;12.35;8.38;;;28.00;58.80;;;;;;5083053;27;20055;-75
2021/09/09 12:27:59;;;;;;;9.45;8.55;;;28.10;57.80;;;;;;5101157;27;20836;-74
2021/09/09 12:30:37;;;;;;;10.98;8.30;;;28.20;60.30;;;;;;5084174;27;20039;-74
2021/09/09 12:33:14;;;;;;;10.75;9.63;;;28.30;62.40;;;;;;5101718;27;20053;-74
2021/09/09 12:35:58;;;;;;;13.40;8.40;;;28.40;56.50;;;;;;5135179;27;20047;-74